Terminal Aerodrome Forecast
Issued by NWS

Home | Current Version | Previous Version | Text Only | Print | Product List | Glossary On
Versions: 1 2 3 4 5 6 7 8 9 10 11 12 13 14 15
649
FTUS43 KJKL 231720
TAFSJS
TAF
KSJS 231720Z 2318/2418 36007KT 5SM -RA OVC006
     FM240100 34007KT 3SM BR VCSH OVC008
     FM241600 28005KT P6SM OVC008=

USA.gov is the U.S. government's official web portal to all federal, state and local government web resources and services.